BAW211 LIRA-LIMJ
Flight info
| Callsign | BAW211 |
|---|---|
| Flight time | N/A |
| Altitude | 36000 |
| Route | OST7ZXGILIO6V/15 GILIO DCT ELB DCT BETEN DCT SPEZI/N0397F180 M729 IDONA |
| Aircraft | A319/M-SDE2E3FGHIJ1RWXY/SB1 |
Departure
| Time | N/A |
|---|---|
| Airport | Ciampino–G. B. Pastine International Airport (LIRA) |
Arrival
| Time | 2026-05-08 16:56 |
|---|---|
| Airport | Genoa Cristoforo Colombo Airport (LIMJ) |
| Time | Latitude | Longitude | Altitude | Speed | Heading |
|---|---|---|---|---|---|
| 2026-05-08 16:19 | 42.60362 | 10.58215 | 36007 ft | 415 kts | 308° |
| 2026-05-08 16:20 | 42.64270 | 10.52495 | 36007 ft | 415 kts | 308° |
| 2026-05-08 16:20 | 42.68202 | 10.46734 | 36002 ft | 416 kts | 308° |
| 2026-05-08 16:21 | 42.72183 | 10.41005 | 35999 ft | 419 kts | 312° |
| 2026-05-08 16:21 | 42.77069 | 10.36561 | 36028 ft | 430 kts | 325° |
| 2026-05-08 16:22 | 42.82326 | 10.32629 | 36005 ft | 430 kts | 325° |
| 2026-05-08 16:22 | 42.87545 | 10.28698 | 36010 ft | 431 kts | 325° |
| 2026-05-08 16:23 | 42.92790 | 10.24721 | 35999 ft | 431 kts | 325° |
| 2026-05-08 16:23 | 42.98035 | 10.20741 | 36019 ft | 431 kts | 325° |
| 2026-05-08 16:24 | 43.03252 | 10.16775 | 36031 ft | 431 kts | 325° |
| 2026-05-08 16:24 | 43.08509 | 10.12780 | 36028 ft | 431 kts | 325° |
| 2026-05-08 16:25 | 43.13756 | 10.08782 | 36026 ft | 431 kts | 325° |
| 2026-05-08 16:25 | 43.18966 | 10.04806 | 36042 ft | 431 kts | 325° |
| 2026-05-08 16:26 | 43.24209 | 10.00799 | 36041 ft | 431 kts | 325° |
| 2026-05-08 16:26 | 43.29441 | 9.96785 | 36027 ft | 430 kts | 325° |
| 2026-05-08 16:27 | 43.32057 | 9.94774 | 35780 ft | 429 kts | 325° |
| 2026-05-08 16:27 | 43.34664 | 9.92770 | 34863 ft | 432 kts | 324° |
| 2026-05-08 16:27 | 43.37291 | 9.90747 | 34133 ft | 431 kts | 324° |
| 2026-05-08 16:27 | 43.39899 | 9.88742 | 33205 ft | 430 kts | 324° |
| 2026-05-08 16:28 | 43.42486 | 9.86750 | 32120 ft | 431 kts | 324° |
| 2026-05-08 16:28 | 43.45119 | 9.84717 | 30968 ft | 434 kts | 324° |
| 2026-05-08 16:28 | 43.47758 | 9.82675 | 29678 ft | 436 kts | 324° |
| 2026-05-08 16:28 | 43.50422 | 9.80612 | 27989 ft | 437 kts | 325° |
| 2026-05-08 16:29 | 43.53042 | 9.78583 | 26024 ft | 438 kts | 326° |
| 2026-05-08 16:29 | 43.55704 | 9.76518 | 24245 ft | 440 kts | 327° |
| 2026-05-08 16:29 | 43.58385 | 9.74443 | 23039 ft | 439 kts | 328° |
| 2026-05-08 16:29 | 43.61024 | 9.72404 | 21789 ft | 431 kts | 328° |
| 2026-05-08 16:30 | 43.63621 | 9.70396 | 20634 ft | 424 kts | 328° |
| 2026-05-08 16:30 | 43.66171 | 9.68418 | 19533 ft | 417 kts | 328° |
| 2026-05-08 16:30 | 43.68674 | 9.66468 | 18490 ft | 409 kts | 328° |
| 2026-05-08 16:30 | 43.71136 | 9.64542 | 17361 ft | 403 kts | 328° |
| 2026-05-08 16:31 | 43.73558 | 9.62647 | 16259 ft | 397 kts | 329° |
| 2026-05-08 16:31 | 43.75946 | 9.60777 | 15209 ft | 392 kts | 329° |
| 2026-05-08 16:31 | 43.78280 | 9.58951 | 14219 ft | 387 kts | 330° |
| 2026-05-08 16:31 | 43.80600 | 9.57136 | 13322 ft | 374 kts | 330° |
| 2026-05-08 16:32 | 43.82776 | 9.55436 | 12927 ft | 343 kts | 330° |
| 2026-05-08 16:32 | 43.84768 | 9.53880 | 12728 ft | 314 kts | 330° |
| 2026-05-08 16:32 | 43.86568 | 9.52469 | 12590 ft | 289 kts | 330° |
| 2026-05-08 16:32 | 43.88278 | 9.51129 | 12200 ft | 278 kts | 330° |
| 2026-05-08 16:33 | 43.89940 | 9.49826 | 11907 ft | 273 kts | 330° |
| 2026-05-08 16:33 | 43.91580 | 9.48536 | 11661 ft | 274 kts | 330° |
| 2026-05-08 16:33 | 43.93233 | 9.47236 | 11413 ft | 272 kts | 330° |
| 2026-05-08 16:33 | 43.94883 | 9.45943 | 11162 ft | 272 kts | 330° |
| 2026-05-08 16:34 | 43.96531 | 9.44651 | 10914 ft | 272 kts | 330° |
| 2026-05-08 16:34 | 43.98080 | 9.43180 | 10998 ft | 271 kts | 319° |
| 2026-05-08 16:34 | 43.99390 | 9.41288 | 11008 ft | 272 kts | 307° |
| 2026-05-08 16:34 | 44.00468 | 9.39131 | 11010 ft | 272 kts | 304° |
| 2026-05-08 16:35 | 44.01528 | 9.36986 | 11010 ft | 272 kts | 304° |
| 2026-05-08 16:35 | 44.02602 | 9.34827 | 11010 ft | 272 kts | 305° |
| 2026-05-08 16:35 | 44.03881 | 9.32887 | 10929 ft | 274 kts | 319° |
| 2026-05-08 16:35 | 44.05422 | 9.31220 | 10237 ft | 287 kts | 322° |
| 2026-05-08 16:36 | 44.07121 | 9.29717 | 9671 ft | 292 kts | 340° |
| 2026-05-08 16:36 | 44.09089 | 9.29543 | 9475 ft | 280 kts | 14° |
| 2026-05-08 16:36 | 44.10683 | 9.30833 | 9359 ft | 258 kts | 48° |
| 2026-05-08 16:36 | 44.11729 | 9.32737 | 9255 ft | 238 kts | 54° |
| 2026-05-08 16:37 | 44.12692 | 9.34515 | 9161 ft | 221 kts | 53° |
| 2026-05-08 16:37 | 44.13613 | 9.36092 | 9063 ft | 206 kts | 43° |
| 2026-05-08 16:37 | 44.14814 | 9.37000 | 9000 ft | 192 kts | 13° |
| 2026-05-08 16:37 | 44.16116 | 9.37018 | 8918 ft | 187 kts | 346° |
| 2026-05-08 16:38 | 44.17258 | 9.36232 | 8879 ft | 177 kts | 322° |
| 2026-05-08 16:38 | 44.18195 | 9.35226 | 8787 ft | 164 kts | 322° |
| 2026-05-08 16:38 | 44.19062 | 9.34315 | 8714 ft | 149 kts | 322° |
| 2026-05-08 16:38 | 44.19874 | 9.33466 | 8657 ft | 144 kts | 322° |
| 2026-05-08 16:39 | 44.20673 | 9.32627 | 8601 ft | 143 kts | 322° |
| 2026-05-08 16:39 | 44.21467 | 9.31792 | 8545 ft | 143 kts | 322° |
| 2026-05-08 16:39 | 44.22259 | 9.30957 | 8491 ft | 142 kts | 322° |
| 2026-05-08 16:39 | 44.23048 | 9.30123 | 8437 ft | 142 kts | 322° |
| 2026-05-08 16:40 | 44.23839 | 9.29287 | 8389 ft | 142 kts | 322° |
| 2026-05-08 16:40 | 44.24625 | 9.28455 | 8335 ft | 142 kts | 322° |
| 2026-05-08 16:40 | 44.25412 | 9.27626 | 8281 ft | 142 kts | 322° |
| 2026-05-08 16:40 | 44.26189 | 9.26808 | 8228 ft | 142 kts | 322° |
| 2026-05-08 16:41 | 44.26963 | 9.25961 | 8174 ft | 141 kts | 316° |
| 2026-05-08 16:41 | 44.27597 | 9.24920 | 8124 ft | 141 kts | 302° |
| 2026-05-08 16:41 | 44.28036 | 9.23709 | 8067 ft | 140 kts | 289° |
| 2026-05-08 16:42 | 44.28281 | 9.21048 | 7962 ft | 139 kts | 266° |
| 2026-05-08 16:42 | 44.28242 | 9.19701 | 7909 ft | 139 kts | 267° |
| 2026-05-08 16:42 | 44.28205 | 9.18354 | 7857 ft | 139 kts | 267° |
| 2026-05-08 16:42 | 44.28168 | 9.17021 | 7800 ft | 139 kts | 267° |
| 2026-05-08 16:43 | 44.28132 | 9.15674 | 7751 ft | 139 kts | 267° |
| 2026-05-08 16:43 | 44.28092 | 9.14202 | 7723 ft | 168 kts | 267° |
| 2026-05-08 16:43 | 44.28044 | 9.12516 | 7638 ft | 177 kts | 267° |
| 2026-05-08 16:43 | 44.27995 | 9.10743 | 7570 ft | 192 kts | 267° |
| 2026-05-08 16:44 | 44.27943 | 9.08830 | 7493 ft | 200 kts | 267° |
| 2026-05-08 16:44 | 44.27892 | 9.06912 | 7416 ft | 201 kts | 267° |
| 2026-05-08 16:44 | 44.27839 | 9.04962 | 7336 ft | 201 kts | 266° |
| 2026-05-08 16:44 | 44.27783 | 9.03005 | 7254 ft | 201 kts | 266° |
| 2026-05-08 16:45 | 44.27720 | 9.00959 | 7176 ft | 218 kts | 267° |
| 2026-05-08 16:45 | 44.27678 | 8.99549 | 7119 ft | 221 kts | 267° |
| 2026-05-08 16:45 | 44.27618 | 8.97394 | 7040 ft | 222 kts | 267° |
| 2026-05-08 16:45 | 44.27538 | 8.94540 | 6935 ft | 222 kts | 267° |
| 2026-05-08 16:46 | 44.27479 | 8.92388 | 6853 ft | 222 kts | 267° |
| 2026-05-08 16:46 | 44.27420 | 8.90236 | 6772 ft | 222 kts | 267° |
| 2026-05-08 16:46 | 44.27381 | 8.88806 | 6704 ft | 222 kts | 267° |
| 2026-05-08 16:46 | 44.27320 | 8.86658 | 6626 ft | 222 kts | 267° |
| 2026-05-08 16:47 | 44.27259 | 8.84500 | 6549 ft | 222 kts | 267° |
| 2026-05-08 16:47 | 44.27197 | 8.82355 | 6471 ft | 221 kts | 267° |
| 2026-05-08 16:47 | 44.27131 | 8.80208 | 6378 ft | 221 kts | 267° |
| 2026-05-08 16:47 | 44.27045 | 8.77374 | 6279 ft | 220 kts | 267° |
| 2026-05-08 16:48 | 44.27002 | 8.75930 | 6223 ft | 220 kts | 267° |
| 2026-05-08 16:48 | 44.26940 | 8.73801 | 6142 ft | 220 kts | 267° |
| 2026-05-08 16:48 | 44.26877 | 8.71692 | 6065 ft | 219 kts | 267° |
| 2026-05-08 16:48 | 44.26956 | 8.69575 | 5965 ft | 220 kts | 281° |
| 2026-05-08 16:49 | 44.27344 | 8.67507 | 5750 ft | 219 kts | 285° |
| 2026-05-08 16:49 | 44.27740 | 8.65458 | 5556 ft | 218 kts | 285° |
| 2026-05-08 16:49 | 44.28133 | 8.63412 | 5368 ft | 218 kts | 285° |
| 2026-05-08 16:49 | 44.28621 | 8.61423 | 5167 ft | 217 kts | 302° |
| 2026-05-08 16:50 | 44.29731 | 8.60062 | 4953 ft | 215 kts | 338° |
| 2026-05-08 16:50 | 44.31198 | 8.59845 | 4592 ft | 217 kts | 12° |
| 2026-05-08 16:50 | 44.32645 | 8.60458 | 4242 ft | 218 kts | 17° |
| 2026-05-08 16:50 | 44.34095 | 8.61075 | 3893 ft | 216 kts | 22° |
| 2026-05-08 16:51 | 44.35305 | 8.62206 | 3691 ft | 207 kts | 44° |
| 2026-05-08 16:51 | 44.36095 | 8.63758 | 3709 ft | 186 kts | 58° |
| 2026-05-08 16:51 | 44.36704 | 8.65218 | 3704 ft | 167 kts | 58° |
| 2026-05-08 16:51 | 44.37277 | 8.66592 | 3696 ft | 152 kts | 58° |
| 2026-05-08 16:52 | 44.37755 | 8.67742 | 3672 ft | 124 kts | 58° |
| 2026-05-08 16:52 | 44.38176 | 8.68751 | 3594 ft | 119 kts | 57° |
| 2026-05-08 16:52 | 44.38590 | 8.69747 | 3287 ft | 118 kts | 57° |
| 2026-05-08 16:52 | 44.38998 | 8.70731 | 2975 ft | 116 kts | 56° |
| 2026-05-08 16:53 | 44.39793 | 8.72672 | 2371 ft | 115 kts | 58° |
| 2026-05-08 16:53 | 44.40194 | 8.73651 | 2061 ft | 116 kts | 58° |
| 2026-05-08 16:53 | 44.40592 | 8.74619 | 1751 ft | 114 kts | 58° |
| 2026-05-08 16:54 | 44.40966 | 8.75576 | 1441 ft | 110 kts | 63° |
| 2026-05-08 16:54 | 44.41063 | 8.76567 | 1153 ft | 99 kts | 84° |
| 2026-05-08 16:54 | 44.41314 | 8.77526 | 702 ft | 103 kts | 63° |
| 2026-05-08 16:54 | 44.41542 | 8.78489 | 386 ft | 124 kts | 75° |
| 2026-05-08 16:55 | 44.41667 | 8.79718 | 536 ft | 139 kts | 81° |
| 2026-05-08 16:55 | 44.41701 | 8.81073 | 305 ft | 138 kts | 90° |
| 2026-05-08 16:55 | 44.41556 | 8.82318 | 88 ft | 120 kts | 100° |
| 2026-05-08 16:55 | 44.41370 | 8.83321 | 14 ft | 87 kts | 106° |
| 2026-05-08 16:56 | 44.41232 | 8.84003 | 11 ft | 50 kts | 105° |
| 2026-05-08 16:56 | 44.41239 | 8.84264 | 11 ft | 26 kts | 55° |
| 2026-05-08 16:56 | 44.41271 | 8.84325 | 10 ft | 0 kts | 54° |
| 2026-05-08 16:56 | 44.41273 | 8.84329 | 10 ft | 2 kts | 54° |
| 2026-05-08 16:57 | 44.41295 | 8.84373 | 10 ft | 9 kts | 54° |
| 2026-05-08 16:57 | 44.41347 | 8.84464 | 10 ft | 15 kts | 52° |
| 2026-05-08 16:57 | 44.41420 | 8.84594 | 10 ft | 18 kts | 50° |
| 2026-05-08 16:57 | 44.41501 | 8.84743 | 10 ft | 19 kts | 59° |
| 2026-05-08 16:58 | 44.41493 | 8.84909 | 10 ft | 13 kts | 104° |
| 2026-05-08 16:58 | 44.41492 | 8.84917 | 10 ft | 0 kts | 104° |